sensor_id;sensor_type;location;lat;lon;timestamp;pressure;altitude;pressure_sealevel;temperature;humidity
5877;BME280;2964;42.144;24.730;2024-02-21T00:00:12;143211.06;;;6.47;99.71
5877;BME280;2964;42.144;24.730;2024-02-21T00:02:39;143228.59;;;6.54;99.96
5877;BME280;2964;42.144;24.730;2024-02-21T00:05:07;143201.06;;;6.43;100.00
5877;BME280;2964;42.144;24.730;2024-02-21T00:07:34;143306.22;;;6.86;100.00
5877;BME280;2964;42.144;24.730;2024-02-21T00:10:01;143383.91;;;7.18;99.95
5877;BME280;2964;42.144;24.730;2024-02-21T00:12:28;143380.13;;;7.16;99.87
5877;BME280;2964;42.144;24.730;2024-02-21T00:14:55;143321.28;;;6.92;99.66
5877;BME280;2964;42.144;24.730;2024-02-21T00:17:22;143293.72;;;6.81;99.73
5877;BME280;2964;42.144;24.730;2024-02-21T00:19:48;143203.59;;;6.44;100.00
5877;BME280;2964;42.144;24.730;2024-02-21T00:22:16;143192.28;;;6.39;100.00
5877;BME280;2964;42.144;24.730;2024-02-21T00:24:43;143223.59;;;6.52;100.00
5877;BME280;2964;42.144;24.730;2024-02-21T00:27:10;143174.78;;;6.32;100.00
5877;BME280;2964;42.144;24.730;2024-02-21T00:29:36;143231.13;;;6.55;100.00
5877;BME280;2964;42.144;24.730;2024-02-21T00:32:04;143176.00;;;6.32;100.00
5877;BME280;2964;42.144;24.730;2024-02-21T00:34:30;143181.06;;;6.34;100.00
5877;BME280;2964;42.144;24.730;2024-02-21T00:36:57;143186.06;;;6.36;100.00
5877;BME280;2964;42.144;24.730;2024-02-21T00:39:25;143181.06;;;6.34;100.00
5877;BME280;2964;42.144;24.730;2024-02-21T00:41:52;143167.25;;;6.29;100.00
5877;BME280;2964;42.144;24.730;2024-02-21T00:44:18;143143.47;;;6.19;100.00
5877;BME280;2964;42.144;24.730;2024-02-21T00:46:45;143133.47;;;6.15;100.00
5877;BME280;2964;42.144;24.730;2024-02-21T00:49:12;143123.47;;;6.11;100.00
5877;BME280;2964;42.144;24.730;2024-02-21T00:51:39;143115.94;;;6.08;100.00
5877;BME280;2964;42.144;24.730;2024-02-21T00:54:05;143102.19;;;6.02;100.00
5877;BME280;2964;42.144;24.730;2024-02-21T00:56:34;143090.91;;;5.97;100.00
5877;BME280;2964;42.144;24.730;2024-02-21T00:59:00;143089.66;;;5.97;100.00
5877;BME280;2964;42.144;24.730;2024-02-21T01:01:27;143087.19;;;5.96;100.00
5877;BME280;2964;42.144;24.730;2024-02-21T01:03:54;143087.19;;;5.96;100.00
5877;BME280;2964;42.144;24.730;2024-02-21T01:06:20;143191.06;;;6.38;100.00
5877;BME280;2964;42.144;24.730;2024-02-21T01:08:47;143242.38;;;6.60;100.00
5877;BME280;2964;42.144;24.730;2024-02-21T01:11:14;143048.34;;;5.80;100.00
5877;BME280;2964;42.144;24.730;2024-02-21T01:13:42;143105.94;;;6.04;100.00
5877;BME280;2964;42.144;24.730;2024-02-21T01:16:09;143158.47;;;6.25;100.00
5877;BME280;2964;42.144;24.730;2024-02-21T01:18:37;143216.06;;;6.49;100.00
5877;BME280;2964;42.144;24.730;2024-02-21T01:21:04;143158.47;;;6.25;100.00
5877;BME280;2964;42.144;24.730;2024-02-21T01:23:32;143184.78;;;6.36;100.00
5877;BME280;2964;42.144;24.730;2024-02-21T01:25:59;143183.53;;;6.35;100.00
5877;BME280;2964;42.144;24.730;2024-02-21T01:28:25;143203.59;;;6.44;100.00
5877;BME280;2964;42.144;24.730;2024-02-21T01:30:53;143204.81;;;6.44;100.00
5877;BME280;2964;42.144;24.730;2024-02-21T01:33:21;143256.13;;;6.65;100.00
5877;BME280;2964;42.144;24.730;2024-02-21T01:35:47;143218.59;;;6.50;100.00
5877;BME280;2964;42.144;24.730;2024-02-21T01:38:14;143343.81;;;7.01;100.00
5877;BME280;2964;42.144;24.730;2024-02-21T01:40:41;143237.38;;;6.57;100.00
5877;BME280;2964;42.144;24.730;2024-02-21T01:43:15;143331.28;;;6.96;100.00
5877;BME280;2964;42.144;24.730;2024-02-21T01:45:43;143340.06;;;7.00;100.00
5877;BME280;2964;42.144;24.730;2024-02-21T01:48:11;143301.22;;;6.84;100.00
5877;BME280;2964;42.144;24.730;2024-02-21T01:50:38;143365.06;;;7.10;100.00
5877;BME280;2964;42.144;24.730;2024-02-21T01:53:06;143316.28;;;6.90;100.00
5877;BME280;2964;42.144;24.730;2024-02-21T01:55:34;143382.63;;;7.17;100.00
5877;BME280;2964;42.144;24.730;2024-02-21T01:58:01;143371.38;;;7.12;100.00
5877;BME280;2964;42.144;24.730;2024-02-21T02:00:28;143276.19;;;6.73;100.00
5877;BME280;2964;42.144;24.730;2024-02-21T02:02:56;143301.22;;;6.84;100.00
5877;BME280;2964;42.144;24.730;2024-02-21T02:05:24;143382.63;;;7.17;100.00
5877;BME280;2964;42.144;24.730;2024-02-21T02:07:52;143321.28;;;6.92;100.00
5877;BME280;2964;42.144;24.730;2024-02-21T02:10:19;143326.28;;;6.94;100.00
5877;BME280;2964;42.144;24.730;2024-02-21T02:12:45;143299.97;;;6.83;100.00
5877;BME280;2964;42.144;24.730;2024-02-21T02:15:12;143317.50;;;6.90;100.00
5877;BME280;2964;42.144;24.730;2024-02-21T02:17:39;143286.19;;;6.78;100.00
5877;BME280;2964;42.144;24.730;2024-02-21T02:20:07;143284.97;;;6.77;99.85
5877;BME280;2964;42.144;24.730;2024-02-21T02:22:36;143309.97;;;6.87;99.94
5877;BME280;2964;42.144;24.730;2024-02-21T02:25:06;143466.56;;;7.51;100.00
5877;BME280;2964;42.144;24.730;2024-02-21T02:27:41;143299.97;;;6.83;100.00
5877;BME280;2964;42.144;24.730;2024-02-21T02:30:10;143283.69;;;6.76;99.65
5877;BME280;2964;42.144;24.730;2024-02-21T02:32:37;143304.97;;;6.85;99.69
5877;BME280;2964;42.144;24.730;2024-02-21T02:35:04;143289.97;;;6.79;100.00
5877;BME280;2964;42.144;24.730;2024-02-21T02:37:31;143341.28;;;7.00;100.00
5877;BME280;2964;42.144;24.730;2024-02-21T02:39:58;143283.69;;;6.76;100.00
5877;BME280;2964;42.144;24.730;2024-02-21T02:42:26;143303.72;;;6.85;100.00
5877;BME280;2964;42.144;24.730;2024-02-21T02:44:52;143343.81;;;7.01;100.00
5877;BME280;2964;42.144;24.730;2024-02-21T02:47:19;143301.22;;;6.84;100.00
5877;BME280;2964;42.144;24.730;2024-02-21T02:49:46;143258.66;;;6.66;100.00
5877;BME280;2964;42.144;24.730;2024-02-21T02:52:16;143247.38;;;6.62;100.00
5877;BME280;2964;42.144;24.730;2024-02-21T02:54:43;143206.06;;;6.45;100.00
5877;BME280;2964;42.144;24.730;2024-02-21T02:57:10;143237.38;;;6.57;100.00
5877;BME280;2964;42.144;24.730;2024-02-21T02:59:38;143228.59;;;6.54;100.00
5877;BME280;2964;42.144;24.730;2024-02-21T03:02:04;143223.59;;;6.52;100.00
5877;BME280;2964;42.144;24.730;2024-02-21T03:04:31;143248.66;;;6.62;100.00
5877;BME280;2964;42.144;24.730;2024-02-21T03:06:58;143251.13;;;6.63;100.00
5877;BME280;2964;42.144;24.730;2024-02-21T03:09:24;143186.06;;;6.36;100.00
5877;BME280;2964;42.144;24.730;2024-02-21T03:11:51;143254.91;;;6.65;100.00
5877;BME280;2964;42.144;24.730;2024-02-21T03:14:22;143221.06;;;6.51;100.00
5877;BME280;2964;42.144;24.730;2024-02-21T03:16:51;143232.38;;;6.55;100.00
5877;BME280;2964;42.144;24.730;2024-02-21T03:19:17;143263.66;;;6.68;100.00
5877;BME280;2964;42.144;24.730;2024-02-21T03:21:44;143264.91;;;6.69;100.00
5877;BME280;2964;42.144;24.730;2024-02-21T03:24:11;143268.66;;;6.70;100.00
5877;BME280;2964;42.144;24.730;2024-02-21T03:26:37;143341.28;;;7.00;100.00
5877;BME280;2964;42.144;24.730;2024-02-21T03:29:05;143385.13;;;7.18;100.00
5877;BME280;2964;42.144;24.730;2024-02-21T03:31:32;143348.81;;;7.03;100.00
5877;BME280;2964;42.144;24.730;2024-02-21T03:34:00;143333.75;;;6.97;100.00
5877;BME280;2964;42.144;24.730;2024-02-21T03:36:27;143335.03;;;6.98;100.00
5877;BME280;2964;42.144;24.730;2024-02-21T03:38:54;143470.34;;;7.53;100.00
5877;BME280;2964;42.144;24.730;2024-02-21T03:41:21;143405.16;;;7.26;100.00
5877;BME280;2964;42.144;24.730;2024-02-21T03:43:47;143466.56;;;7.51;100.00
5877;BME280;2964;42.144;24.730;2024-02-21T03:46:14;143536.75;;;7.80;100.00
5877;BME280;2964;42.144;24.730;2024-02-21T03:48:41;143416.47;;;7.31;100.00
5877;BME280;2964;42.144;24.730;2024-02-21T03:51:09;143553.03;;;7.87;100.00
5877;BME280;2964;42.144;24.730;2024-02-21T03:53:36;143491.66;;;7.62;100.00
5877;BME280;2964;42.144;24.730;2024-02-21T03:56:03;143496.66;;;7.64;100.00
5877;BME280;2964;42.144;24.730;2024-02-21T03:58:31;143445.25;;;7.43;100.00
5877;BME280;2964;42.144;24.730;2024-02-21T04:00:59;143474.09;;;7.54;100.00
5877;BME280;2964;42.144;24.730;2024-02-21T04:03:26;143545.47;;;7.84;100.00
5877;BME280;2964;42.144;24.730;2024-02-21T04:05:53;143466.56;;;7.51;100.00
5877;BME280;2964;42.144;24.730;2024-02-21T04:08:22;143471.56;;;7.53;100.00
5877;BME280;2964;42.144;24.730;2024-02-21T04:10:49;143469.09;;;7.52;100.00
5877;BME280;2964;42.144;24.730;2024-02-21T04:13:15;143411.44;;;7.29;100.00
5877;BME280;2964;42.144;24.730;2024-02-21T04:15:42;143372.59;;;7.13;100.00
5877;BME280;2964;42.144;24.730;2024-02-21T04:18:09;143363.84;;;7.09;100.00
5877;BME280;2964;42.144;24.730;2024-02-21T04:20:35;143337.53;;;6.99;100.00
5877;BME280;2964;42.144;24.730;2024-02-21T04:23:02;143410.16;;;7.28;100.00
5877;BME280;2964;42.144;24.730;2024-02-21T04:25:30;143366.34;;;7.10;99.98
5877;BME280;2964;42.144;24.730;2024-02-21T04:27:57;143336.28;;;6.98;99.95
5877;BME280;2964;42.144;24.730;2024-02-21T04:30:24;143258.66;;;6.66;99.94
5877;BME280;2964;42.144;24.730;2024-02-21T04:32:50;143307.50;;;6.86;100.00
5877;BME280;2964;42.144;24.730;2024-02-21T04:35:17;143345.06;;;7.02;100.00
5877;BME280;2964;42.144;24.730;2024-02-21T04:37:44;143363.84;;;7.09;100.00
5877;BME280;2964;42.144;24.730;2024-02-21T04:40:11;143376.38;;;7.14;100.00
5877;BME280;2964;42.144;24.730;2024-02-21T04:42:39;143279.91;;;6.75;99.82
5877;BME280;2964;42.144;24.730;2024-02-21T04:45:07;143179.78;;;6.34;99.63
5877;BME280;2964;42.144;24.730;2024-02-21T04:47:34;143163.53;;;6.27;99.41
5877;BME280;2964;42.144;24.730;2024-02-21T04:50:00;143196.06;;;6.41;99.52
5877;BME280;2964;42.144;24.730;2024-02-21T04:52:27;143258.66;;;6.66;99.72
5877;BME280;2964;42.144;24.730;2024-02-21T04:54:54;143236.13;;;6.57;99.54
5877;BME280;2964;42.144;24.730;2024-02-21T04:57:21;143223.59;;;6.52;99.70
5877;BME280;2964;42.144;24.730;2024-02-21T04:59:49;143238.59;;;6.58;99.66
5877;BME280;2964;42.144;24.730;2024-02-21T05:02:16;143232.38;;;6.55;99.82
5877;BME280;2964;42.144;24.730;2024-02-21T05:04:44;143283.69;;;6.76;99.92
5877;BME280;2964;42.144;24.730;2024-02-21T05:07:11;143232.38;;;6.55;99.59
5877;BME280;2964;42.144;24.730;2024-02-21T05:09:38;143212.31;;;6.47;99.67
5877;BME280;2964;42.144;24.730;2024-02-21T05:12:05;143284.97;;;6.77;99.61
5877;BME280;2964;42.144;24.730;2024-02-21T05:14:31;143415.22;;;7.30;99.81
5877;BME280;2964;42.144;24.730;2024-02-21T05:17:00;143284.97;;;6.77;99.68
5877;BME280;2964;42.144;24.730;2024-02-21T05:19:26;143248.66;;;6.62;99.56
5877;BME280;2964;42.144;24.730;2024-02-21T05:21:53;143289.97;;;6.79;99.50
5877;BME280;2964;42.144;24.730;2024-02-21T05:24:20;143293.72;;;6.81;99.42
5877;BME280;2964;42.144;24.730;2024-02-21T05:26:46;143238.59;;;6.58;99.70
5877;BME280;2964;42.144;24.730;2024-02-21T05:29:13;143212.31;;;6.47;99.49
5877;BME280;2964;42.144;24.730;2024-02-21T05:31:55;143196.06;;;6.41;99.64
5877;BME280;2964;42.144;24.730;2024-02-21T05:34:23;143249.91;;;6.63;99.65
5877;BME280;2964;42.144;24.730;2024-02-21T05:36:50;143223.59;;;6.52;99.79
5877;BME280;2964;42.144;24.730;2024-02-21T05:39:18;143194.81;;;6.40;99.75
5877;BME280;2964;42.144;24.730;2024-02-21T05:41:44;143227.34;;;6.53;99.91
5877;BME280;2964;42.144;24.730;2024-02-21T05:44:11;143268.66;;;6.70;99.86
5877;BME280;2964;42.144;24.730;2024-02-21T05:46:38;143218.59;;;6.50;99.70
5877;BME280;2964;42.144;24.730;2024-02-21T05:49:05;143226.13;;;6.53;99.55
5877;BME280;2964;42.144;24.730;2024-02-21T05:51:34;143135.94;;;6.16;99.51
5877;BME280;2964;42.144;24.730;2024-02-21T05:54:01;143262.44;;;6.68;99.91
5877;BME280;2964;42.144;24.730;2024-02-21T05:56:28;143297.44;;;6.82;99.69
5877;BME280;2964;42.144;24.730;2024-02-21T05:58:55;143316.28;;;6.90;99.76
5877;BME280;2964;42.144;24.730;2024-02-21T06:01:22;143370.13;;;7.12;99.64
5877;BME280;2964;42.144;24.730;2024-02-21T06:03:48;143027.06;;;5.71;99.59
5877;BME280;2964;42.144;24.730;2024-02-21T06:06:15;143307.50;;;6.86;99.60
5877;BME280;2964;42.144;24.730;2024-02-21T06:08:43;143273.66;;;6.72;99.63
5877;BME280;2964;42.144;24.730;2024-02-21T06:11:10;143268.66;;;6.70;99.60
5877;BME280;2964;42.144;24.730;2024-02-21T06:13:38;143223.59;;;6.52;99.50
5877;BME280;2964;42.144;24.730;2024-02-21T06:16:06;143303.72;;;6.85;99.44
5877;BME280;2964;42.144;24.730;2024-02-21T06:18:35;143194.81;;;6.40;99.44
5877;BME280;2964;42.144;24.730;2024-02-21T06:21:03;143283.69;;;6.76;99.44
5877;BME280;2964;42.144;24.730;2024-02-21T06:23:29;143301.22;;;6.84;99.68
5877;BME280;2964;42.144;24.730;2024-02-21T06:25:58;143306.22;;;6.86;99.53
5877;BME280;2964;42.144;24.730;2024-02-21T06:28:24;143353.81;;;7.05;99.45
5877;BME280;2964;42.144;24.730;2024-02-21T06:30:51;143328.75;;;6.95;99.44
5877;BME280;2964;42.144;24.730;2024-02-21T06:33:18;143403.91;;;7.26;99.66
5877;BME280;2964;42.144;24.730;2024-02-21T06:35:48;143385.13;;;7.18;99.49
5877;BME280;2964;42.144;24.730;2024-02-21T06:38:17;143436.47;;;7.39;99.58
5877;BME280;2964;42.144;24.730;2024-02-21T06:40:44;143489.13;;;7.61;99.42
5877;BME280;2964;42.144;24.730;2024-02-21T06:43:16;143520.44;;;7.73;99.71
5877;BME280;2964;42.144;24.730;2024-02-21T06:45:43;143536.75;;;7.80;99.82
5877;BME280;2964;42.144;24.730;2024-02-21T06:48:12;143559.31;;;7.89;99.50
5877;BME280;2964;42.144;24.730;2024-02-21T06:50:39;143616.94;;;8.13;99.79
5877;BME280;2964;42.144;24.730;2024-02-21T06:53:06;143585.59;;;8.00;100.00
5877;BME280;2964;42.144;24.730;2024-02-21T06:55:33;143711.03;;;8.52;99.69
5877;BME280;2964;42.144;24.730;2024-02-21T06:57:59;143857.78;;;9.12;98.94
5877;BME280;2964;42.144;24.730;2024-02-21T07:00:28;143872.84;;;9.18;98.97
5877;BME280;2964;42.144;24.730;2024-02-21T07:02:55;143846.47;;;9.07;99.34
5877;BME280;2964;42.144;24.730;2024-02-21T07:05:22;143857.78;;;9.12;97.85
5877;BME280;2964;42.144;24.730;2024-02-21T07:07:48;143920.53;;;9.37;96.40
5877;BME280;2964;42.144;24.730;2024-02-21T07:10:15;143994.56;;;9.68;95.23
5877;BME280;2964;42.144;24.730;2024-02-21T07:12:42;143965.72;;;9.56;95.06
5877;BME280;2964;42.144;24.730;2024-02-21T07:15:09;144027.19;;;9.81;93.62
5877;BME280;2964;42.144;24.730;2024-02-21T07:17:37;144020.94;;;9.78;93.96
5877;BME280;2964;42.144;24.730;2024-02-21T07:20:04;144130.16;;;10.23;94.36
5877;BME280;2964;42.144;24.730;2024-02-21T07:22:31;144101.28;;;10.11;93.65
5877;BME280;2964;42.144;24.730;2024-02-21T07:24:58;144196.78;;;10.50;91.90
5877;BME280;2964;42.144;24.730;2024-02-21T07:27:24;144196.78;;;10.50;92.89
5877;BME280;2964;42.144;24.730;2024-02-21T07:29:53;144214.34;;;10.57;93.85
5877;BME280;2964;42.144;24.730;2024-02-21T07:32:20;144285.97;;;10.87;93.18
5877;BME280;2964;42.144;24.730;2024-02-21T07:34:48;144332.44;;;11.06;91.65
5877;BME280;2964;42.144;24.730;2024-02-21T07:37:15;144289.75;;;10.88;92.04
5877;BME280;2964;42.144;24.730;2024-02-21T07:39:42;144370.13;;;11.21;90.11
5877;BME280;2964;42.144;24.730;2024-02-21T07:42:08;144380.22;;;11.25;91.15
5877;BME280;2964;42.144;24.730;2024-02-21T07:44:35;144478.22;;;11.65;90.97
5877;BME280;2964;42.144;24.730;2024-02-21T07:47:02;144497.06;;;11.73;89.07
5877;BME280;2964;42.144;24.730;2024-02-21T07:49:28;144585.16;;;12.09;88.56
5877;BME280;2964;42.144;24.730;2024-02-21T07:51:56;144580.16;;;12.07;86.14
5877;BME280;2964;42.144;24.730;2024-02-21T07:54:23;144479.53;;;11.66;87.71
5877;BME280;2964;42.144;24.730;2024-02-21T07:56:50;144495.84;;;11.72;86.87
5877;BME280;2964;42.144;24.730;2024-02-21T07:59:17;144499.59;;;11.74;88.39
5877;BME280;2964;42.144;24.730;2024-02-21T08:01:43;144314.84;;;10.98;86.57
5877;BME280;2964;42.144;24.730;2024-02-21T08:04:11;144503.38;;;11.75;86.44
5877;BME280;2964;42.144;24.730;2024-02-21T08:06:38;144439.28;;;11.49;87.58
5877;BME280;2964;42.144;24.730;2024-02-21T08:09:06;144549.94;;;11.94;88.64
5877;BME280;2964;42.144;24.730;2024-02-21T08:11:33;144586.41;;;12.09;87.07
5877;BME280;2964;42.144;24.730;2024-02-21T08:14:00;144606.56;;;12.18;85.50
5877;BME280;2964;42.144;24.730;2024-02-21T08:16:28;144585.16;;;12.09;86.39
5877;BME280;2964;42.144;24.730;2024-02-21T08:18:55;144539.91;;;11.90;85.06
5877;BME280;2964;42.144;24.730;2024-02-21T08:21:23;144543.69;;;11.92;84.89
5877;BME280;2964;42.144;24.730;2024-02-21T08:23:49;144497.06;;;11.73;85.47
5877;BME280;2964;42.144;24.730;2024-02-21T08:26:18;144497.06;;;11.73;83.22
5877;BME280;2964;42.144;24.730;2024-02-21T08:28:45;144577.59;;;12.06;81.27
5877;BME280;2964;42.144;24.730;2024-02-21T08:31:18;144638.00;;;12.30;82.05
5877;BME280;2964;42.144;24.730;2024-02-21T08:33:45;144599.00;;;12.14;80.69
5877;BME280;2964;42.144;24.730;2024-02-21T08:36:17;144636.72;;;12.30;79.88
5877;BME280;2964;42.144;24.730;2024-02-21T08:38:44;144631.69;;;12.28;79.62
5877;BME280;2964;42.144;24.730;2024-02-21T08:41:10;144737.38;;;12.71;78.29
5877;BME280;2964;42.144;24.730;2024-02-21T08:43:38;144673.19;;;12.45;78.27
5877;BME280;2964;42.144;24.730;2024-02-21T08:46:05;144666.91;;;12.42;79.39
5877;BME280;2964;42.144;24.730;2024-02-21T08:48:32;144705.94;;;12.58;78.75
5877;BME280;2964;42.144;24.730;2024-02-21T08:50:58;144726.03;;;12.66;80.91
5877;BME280;2964;42.144;24.730;2024-02-21T08:53:25;144821.66;;;13.05;79.89
5877;BME280;2964;42.144;24.730;2024-02-21T08:55:52;144875.78;;;13.27;77.31
5877;BME280;2964;42.144;24.730;2024-02-21T08:58:18;144879.56;;;13.29;77.51
5877;BME280;2964;42.144;24.730;2024-02-21T09:00:46;144714.75;;;12.62;79.47
5877;BME280;2964;42.144;24.730;2024-02-21T09:03:13;144712.19;;;12.61;80.79
5877;BME280;2964;42.144;24.730;2024-02-21T09:05:40;144694.59;;;12.53;78.99
5877;BME280;2964;42.144;24.730;2024-02-21T09:08:07;144712.19;;;12.61;79.88
5877;BME280;2964;42.144;24.730;2024-02-21T09:10:33;145021.94;;;13.87;75.31
5877;BME280;2964;42.144;24.730;2024-02-21T09:13:00;145421.41;;;15.50;69.10
5877;BME280;2964;42.144;24.730;2024-02-21T09:15:29;145523.59;;;15.91;67.47
5877;BME280;2964;42.144;24.730;2024-02-21T09:17:57;145529.94;;;15.94;65.96
5877;BME280;2964;42.144;24.730;2024-02-21T09:20:25;146019.78;;;17.93;61.37
5877;BME280;2964;42.144;24.730;2024-02-21T09:22:51;146208.03;;;18.69;55.87
5877;BME280;2964;42.144;24.730;2024-02-21T09:25:18;146806.50;;;21.12;50.37
5877;BME280;2964;42.144;24.730;2024-02-21T09:27:45;147329.94;;;23.24;44.53
5877;BME280;2964;42.144;24.730;2024-02-21T09:30:12;147452.94;;;23.74;36.65
5877;BME280;2964;42.144;24.730;2024-02-21T09:32:39;147048.47;;;22.10;37.38
5877;BME280;2964;42.144;24.730;2024-02-21T09:35:09;147474.50;;;23.83;34.23
5877;BME280;2964;42.144;24.730;2024-02-21T09:37:37;147624.22;;;24.43;32.69
5877;BME280;2964;42.144;24.730;2024-02-21T09:40:05;147374.28;;;23.42;34.60
5877;BME280;2964;42.144;24.730;2024-02-21T09:42:37;147810.84;;;25.19;33.56
5877;BME280;2964;42.144;24.730;2024-02-21T09:45:08;148167.88;;;26.63;29.91
5877;BME280;2964;42.144;24.730;2024-02-21T09:47:42;148103.03;;;26.37;30.04
5877;BME280;2964;42.144;24.730;2024-02-21T09:50:12;147978.53;;;25.87;30.74
5877;BME280;2964;42.144;24.730;2024-02-21T09:52:40;148292.47;;;27.13;28.48
5877;BME280;2964;42.144;24.730;2024-02-21T09:55:08;148907.06;;;29.61;24.48
5877;BME280;2964;42.144;24.730;2024-02-21T09:57:37;148451.41;;;27.78;26.22
5877;BME280;2964;42.144;24.730;2024-02-21T10:00:05;148221.28;;;26.85;28.23
5877;BME280;2964;42.144;24.730;2024-02-21T10:02:33;147950.59;;;25.75;30.23
5877;BME280;2964;42.144;24.730;2024-02-21T10:05:00;148488.38;;;27.92;27.02
5877;BME280;2964;42.144;24.730;2024-02-21T10:07:30;147522.72;;;24.02;30.36
5877;BME280;2964;42.144;24.730;2024-02-21T10:10:01;148200.97;;;26.76;27.66
5877;BME280;2964;42.144;24.730;2024-02-21T10:12:28;147979.78;;;25.87;28.26
5877;BME280;2964;42.144;24.730;2024-02-21T10:15:00;147705.50;;;24.76;29.13
5877;BME280;2964;42.144;24.730;2024-02-21T10:17:27;146881.19;;;21.43;35.20
5877;BME280;2964;42.144;24.730;2024-02-21T10:19:53;145811.38;;;17.08;45.59
5877;BME280;2964;42.144;24.730;2024-02-21T10:22:20;145503.44;;;15.83;48.97
5877;BME280;2964;42.144;24.730;2024-02-21T10:24:48;145334.44;;;15.14;51.77
5877;BME280;2964;42.144;24.730;2024-02-21T10:27:16;145283.97;;;14.94;50.49
5877;BME280;2964;42.144;24.730;2024-02-21T10:29:49;145137.78;;;14.34;54.82
5877;BME280;2964;42.144;24.730;2024-02-21T10:32:15;145135.28;;;14.33;51.51
5877;BME280;2964;42.144;24.730;2024-02-21T10:34:42;145151.63;;;14.40;51.74
5877;BME280;2964;42.144;24.730;2024-02-21T10:37:11;145125.16;;;14.29;52.62
5877;BME280;2964;42.144;24.730;2024-02-21T10:39:39;145194.53;;;14.57;53.52
5877;BME280;2964;42.144;24.730;2024-02-21T10:42:11;145034.47;;;13.92;51.46
5877;BME280;2964;42.144;24.730;2024-02-21T10:44:39;144948.84;;;13.57;53.39
5877;BME280;2964;42.144;24.730;2024-02-21T10:47:08;144994.19;;;13.76;54.20
5877;BME280;2964;42.144;24.730;2024-02-21T10:49:38;144990.44;;;13.74;53.96
5877;BME280;2964;42.144;24.730;2024-02-21T10:52:12;145037.03;;;13.93;54.70
5877;BME280;2964;42.144;24.730;2024-02-21T10:54:44;144986.66;;;13.73;54.67
5877;BME280;2964;42.144;24.730;2024-02-21T10:57:14;145028.19;;;13.89;54.42
5877;BME280;2964;42.144;24.730;2024-02-21T10:59:40;145042.06;;;13.95;53.43
5877;BME280;2964;42.144;24.730;2024-02-21T11:02:07;145049.63;;;13.98;53.40
5877;BME280;2964;42.144;24.730;2024-02-21T11:04:35;144916.13;;;13.44;52.90
5877;BME280;2964;42.144;24.730;2024-02-21T11:07:03;144961.44;;;13.62;52.96
5877;BME280;2964;42.144;24.730;2024-02-21T11:09:30;144984.13;;;13.71;53.47
5877;BME280;2964;42.144;24.730;2024-02-21T11:11:58;144997.97;;;13.77;51.91
5877;BME280;2964;42.144;24.730;2024-02-21T11:14:28;144931.22;;;13.50;52.31
5877;BME280;2964;42.144;24.730;2024-02-21T11:16:58;144984.13;;;13.71;52.07
5877;BME280;2964;42.144;24.730;2024-02-21T11:19:26;144966.47;;;13.64;52.26
5877;BME280;2964;42.144;24.730;2024-02-21T11:21:54;145026.97;;;13.89;52.95
5877;BME280;2964;42.144;24.730;2024-02-21T11:24:29;145071.00;;;14.07;52.90
5877;BME280;2964;42.144;24.730;2024-02-21T11:26:56;145100.00;;;14.19;51.38
5877;BME280;2964;42.144;24.730;2024-02-21T11:29:24;145053.38;;;14.00;51.34
5877;BME280;2964;42.144;24.730;2024-02-21T11:31:53;144980.31;;;13.70;52.42
5877;BME280;2964;42.144;24.730;2024-02-21T11:34:20;145052.13;;;13.99;51.51
5877;BME280;2964;42.144;24.730;2024-02-21T11:36:47;145074.78;;;14.08;51.42
5877;BME280;2964;42.144;24.730;2024-02-21T11:39:21;144878.31;;;13.28;51.33
5877;BME280;2964;42.144;24.730;2024-02-21T11:42:02;144572.59;;;12.04;51.71
5877;BME280;2964;42.144;24.730;2024-02-21T11:44:29;144947.59;;;13.57;52.33
5877;BME280;2964;42.144;24.730;2024-02-21T11:46:57;144947.59;;;13.57;51.49
5877;BME280;2964;42.144;24.730;2024-02-21T11:49:25;144917.38;;;13.44;50.81
5877;BME280;2964;42.144;24.730;2024-02-21T11:51:58;144971.50;;;13.66;50.98
5877;BME280;2964;42.144;24.730;2024-02-21T11:54:26;145026.97;;;13.89;49.80
5877;BME280;2964;42.144;24.730;2024-02-21T11:56:52;145077.34;;;14.09;49.44
5877;BME280;2964;42.144;24.730;2024-02-21T11:59:19;145068.50;;;14.06;50.20
5877;BME280;2964;42.144;24.730;2024-02-21T12:01:46;145059.69;;;14.02;49.25
5877;BME280;2964;42.144;24.730;2024-02-21T12:04:15;145037.03;;;13.93;49.02
5877;BME280;2964;42.144;24.730;2024-02-21T12:06:45;145067.25;;;14.05;48.31
5877;BME280;2964;42.144;24.730;2024-02-21T12:09:14;144980.31;;;13.70;49.10
5877;BME280;2964;42.144;24.730;2024-02-21T12:11:40;145067.25;;;14.05;48.86
5877;BME280;2964;42.144;24.730;2024-02-21T12:14:07;145094.97;;;14.17;48.27
5877;BME280;2964;42.144;24.730;2024-02-21T12:16:35;145100.00;;;14.19;48.68
5877;BME280;2964;42.144;24.730;2024-02-21T12:19:02;145128.97;;;14.31;48.93
5877;BME280;2964;42.144;24.730;2024-02-21T12:21:32;145126.47;;;14.29;46.72
5877;BME280;2964;42.144;24.730;2024-02-21T12:24:11;145204.63;;;14.61;46.82
5877;BME280;2964;42.144;24.730;2024-02-21T12:26:38;145190.69;;;14.56;46.73
5877;BME280;2964;42.144;24.730;2024-02-21T12:29:05;145107.53;;;14.22;45.88
5877;BME280;2964;42.144;24.730;2024-02-21T12:31:31;145083.59;;;14.12;45.74
5877;BME280;2964;42.144;24.730;2024-02-21T12:33:58;145121.44;;;14.27;47.29
5877;BME280;2964;42.144;24.730;2024-02-21T12:36:25;145103.78;;;14.20;47.66
5877;BME280;2964;42.144;24.730;2024-02-21T12:38:53;145079.81;;;14.10;47.07
5877;BME280;2964;42.144;24.730;2024-02-21T12:41:20;145074.78;;;14.08;47.83
5877;BME280;2964;42.144;24.730;2024-02-21T12:43:47;145147.84;;;14.38;46.59
5877;BME280;2964;42.144;24.730;2024-02-21T12:46:13;145067.25;;;14.05;46.65
5877;BME280;2964;42.144;24.730;2024-02-21T12:48:40;145181.88;;;14.52;46.35
5877;BME280;2964;42.144;24.730;2024-02-21T12:51:07;145200.81;;;14.60;46.19
5877;BME280;2964;42.144;24.730;2024-02-21T12:53:34;145037.03;;;13.93;46.29
5877;BME280;2964;42.144;24.730;2024-02-21T12:56:02;145004.28;;;13.80;45.22
5877;BME280;2964;42.144;24.730;2024-02-21T12:58:30;145067.25;;;14.05;46.03
5877;BME280;2964;42.144;24.730;2024-02-21T13:00:57;145042.06;;;13.95;46.10
5877;BME280;2964;42.144;24.730;2024-02-21T13:03:24;145047.09;;;13.97;45.95